Colorado Springs, CO (80941)

8:31 PM MDT on July 29, 2016 (GMT -0600)
Pine Bluff Subdivision | | Change Station
Active Advisory: Severe Thunderstorm Watch Active Notice: Record Report

Elev 6450 ft 38.87 °N, 104.77 °W | Updated 7 minutes ago

Scattered Clouds
Scattered Clouds
68.4 °F
Feels Like 68.4 °F
N
5.3
Wind Variable Wind from South

Today
High -- | Low -- °F
--% Chance of Precip.
Yesterday
High -- | Low -- °F
Precip. -- in
Pressure 29.97 in
Visibility 10.0 miles
Clouds Scattered Clouds 4800 ft
Scattered Clouds 20000 ft
Dew Point 57 °F
Humidity 67%
Rainfall 0.00 in
Snow Depth Not available.
5:57 AM 8:12 PM
Waning Crescent, 17% visible
METAR KCOS 300154Z 16008KT 10SM SCT048 SCT200 22/13 A3021 RMK AO2 SLP149 T02170133
Pressure 29.97 in
Visibility 10.0 miles
Clouds Scattered Clouds 4800 ft
Scattered Clouds 20000 ft
Dew Point 57 °F
Humidity 67%
Rainfall 0.00 in
Snow Depth Not available.
5:57 AM 8:12 PM
Waning Crescent, 17% visible
METAR KCOS 300154Z 16008KT 10SM SCT048 SCT200 22/13 A3021 RMK AO2 SLP149 T02170133

10-Day Weather Forecast

Almanac

Astronomy

Jul. 29, 2016 Rise Set
Actual Time
Civil Twilight
Nautical Twilight
Astronomical Twilight
Moon
Length of Visible Light
Length of Day
Tomorrow will be .
, % of the Moon is Illuminated

Today's Extremes

State Highs State Lows

Community

WunderPhotos

Upload Photos

1,928,488 photos uploaded!

WunderBlog® & News

Nearby

Air Quality

  Air Quality AQ Index Pollutant
Not available.

Snow Depth

Station Depth Elevation

Earthquake Activity

City Distance Mag. Time & Date
Minimum magnitude displayed is 2.5.

Coastal Water Temperatures

Place Temperature

Stations

Nearby Weather Stations

Station Location Temp. Windchill Dew Point Humidity Wind Precip. Elev Updated Type
                   

Watches & Warnings

Severe Thunderstorm Watch
Issued: 8:24 PM MDT Jul. 29, 2016 – National Weather Service

Severe Thunderstorm Watch 422 remains in effect until 1000 PM MDT
for the following locations


Co
. Colorado counties included are

Adams Arapahoe Boulder
Broomfield Denver Douglas
Elbert El Paso Jefferson
Larimer Lincoln Logan
Morgan Phillips Sedgwick
Washington Weld